Time;durP1;ratioP1;P1;durP2;ratioP2;P2;SDS_P1;SDS_P2;PMS_P1;PMS_P2;Temp;Humidity;BMP_temperature;BMP_pressure;BME280_temperature;BME280_humidity;BME280_pressure;Samples;Min_cycle;Max_cycle;Signal;HPM_P1;HPM_P2
2022/07/08 00:02:00;;;;;;;5.05;1.77;;;;;;;20.33;71.23;102860.00;7393377;19;20014;-51
2022/07/08 00:04:29;;;;;;;7.50;1.63;;;;;;;20.33;71.60;102865.34;7399498;19;20014;-56
2022/07/08 00:06:58;;;;;;;7.70;2.08;;;;;;;20.25;73.46;102867.56;7395380;19;20091;-57
2022/07/08 00:09:28;;;;;;;6.30;1.80;;;;;;;20.48;73.14;102871.66;7394890;19;20014;-56
2022/07/08 00:11:58;;;;;;;7.32;2.17;;;;;;;20.10;73.59;102864.78;7392912;19;20018;-58
2022/07/08 00:14:27;;;;;;;7.28;2.13;;;;;;;20.31;72.28;102868.09;7395092;19;20025;-58
2022/07/08 00:16:56;;;;;;;10.50;2.10;;;;;;;20.27;73.66;102871.00;7394342;19;20010;-56
2022/07/08 00:19:28;;;;;;;7.28;2.25;;;;;;;20.21;73.06;102861.53;7393393;19;20014;-57
2022/07/08 00:21:57;;;;;;;8.50;2.20;;;;;;;20.34;72.54;102875.06;7396210;19;20015;-57
2022/07/08 00:24:26;;;;;;;8.60;2.33;;;;;;;20.34;72.86;102867.06;7394822;19;20010;-57
2022/07/08 00:26:55;;;;;;;8.27;2.28;;;;;;;20.33;73.37;102866.22;7395031;19;20010;-52
2022/07/08 00:29:24;;;;;;;8.68;2.00;;;;;;;19.95;75.76;102869.06;7394178;19;20098;-57
2022/07/08 00:31:53;;;;;;;6.57;1.83;;;;;;;20.13;76.27;102880.59;7392410;19;20021;-56
2022/07/08 00:34:22;;;;;;;7.93;2.00;;;;;;;20.22;75.05;102871.25;7394711;19;20021;-52
2022/07/08 00:36:54;;;;;;;10.80;1.95;;;;;;;19.85;77.27;102870.50;7394140;19;20495;-55
2022/07/08 00:39:23;;;;;;;6.72;2.00;;;;;;;20.09;74.84;102875.47;7396695;19;20014;-57
2022/07/08 00:41:51;;;;;;;6.90;1.95;;;;;;;20.30;75.72;102877.03;7391983;19;20018;-58
2022/07/08 00:44:20;;;;;;;8.95;2.35;;;;;;;20.28;73.87;102876.25;7394267;19;20344;-55
2022/07/08 00:46:49;;;;;;;6.00;1.83;;;;;;;20.33;72.90;102876.88;7394098;19;20100;-57
2022/07/08 00:49:18;;;;;;;9.50;2.40;;;;;;;20.46;75.13;102881.53;7392735;19;20018;-55
2022/07/08 00:51:49;;;;;;;5.65;1.75;;;;;;;20.36;73.74;102879.38;7391194;19;20037;-58
2022/07/08 00:54:22;;;;;;;5.88;1.77;;;;;;;20.45;74.34;102872.69;7393457;19;20026;-51
2022/07/08 00:56:52;;;;;;;7.40;2.17;;;;;;;20.48;73.66;102887.66;7397717;19;20011;-55
2022/07/08 00:59:22;;;;;;;8.50;2.42;;;;;;;20.26;72.26;102891.44;7393056;19;20018;-55
2022/07/08 01:01:51;;;;;;;7.10;2.03;;;;;;;20.04;73.52;102886.38;7392108;19;20018;-57
2022/07/08 01:04:20;;;;;;;11.02;1.85;;;;;;;19.88;75.55;102892.47;7395779;19;20014;-55
2022/07/08 01:06:49;;;;;;;7.60;1.90;;;;;;;19.71;76.65;102890.66;7398529;19;20006;-51
2022/07/08 01:09:20;;;;;;;10.20;2.38;;;;;;;19.60;77.53;102892.09;7392534;19;20018;-50
2022/07/08 01:11:49;;;;;;;13.02;2.45;;;;;;;20.05;76.73;102885.44;7391781;19;20019;-56
2022/07/08 01:14:18;;;;;;;7.78;2.10;;;;;;;20.00;75.78;102896.31;7397276;19;20003;-57
2022/07/08 01:16:47;;;;;;;8.40;2.20;;;;;;;20.17;76.43;102898.13;7392468;19;20022;-57
2022/07/08 01:19:16;;;;;;;7.10;1.75;;;;;;;20.19;74.94;102888.25;7392004;19;20611;-55
2022/07/08 01:21:48;;;;;;;7.25;2.15;;;;;;;19.95;76.21;102895.69;7391621;19;20019;-57
2022/07/08 01:24:17;;;;;;;8.75;2.03;;;;;;;20.09;75.75;102884.34;7393099;19;20010;-56
2022/07/08 01:26:46;;;;;;;5.38;2.17;;;;;;;19.98;76.23;102889.34;7392810;19;20026;-53
2022/07/08 01:29:15;;;;;;;6.82;2.20;;;;;;;19.96;76.87;102878.78;7392081;19;20093;-61
2022/07/08 01:31:44;;;;;;;8.13;1.70;;;;;;;20.12;76.63;102883.31;7395573;19;20049;-53
2022/07/08 01:34:13;;;;;;;8.10;2.08;;;;;;;20.24;77.21;102882.66;7392489;19;20370;-52
2022/07/08 01:36:42;;;;;;;5.20;2.15;;;;;;;20.03;75.82;102880.19;7392471;19;20021;-57
2022/07/08 01:39:13;;;;;;;6.68;2.22;;;;;;;19.92;76.07;102882.53;7391307;19;20015;-56
2022/07/08 01:41:42;;;;;;;10.07;2.20;;;;;;;20.03;75.62;102885.50;7390740;19;20010;-55
2022/07/08 01:44:11;;;;;;;9.52;2.30;;;;;;;19.64;77.35;102893.66;7392267;19;20010;-57
2022/07/08 01:46:40;;;;;;;9.02;2.20;;;;;;;19.70;76.50;102891.56;7391983;19;20019;-56
2022/07/08 01:49:13;;;;;;;8.15;2.15;;;;;;;19.89;75.79;102882.69;7395969;19;20020;-57
2022/07/08 01:51:41;;;;;;;6.45;2.15;;;;;;;19.89;76.21;102888.03;7391191;19;20025;-56
2022/07/08 01:54:13;;;;;;;6.32;1.73;;;;;;;19.70;76.36;102891.56;7391996;19;20006;-55
2022/07/08 01:56:42;;;;;;;9.52;2.75;;;;;;;19.77;76.45;102888.59;7392010;19;20030;-53
2022/07/08 01:59:11;;;;;;;5.93;2.17;;;;;;;19.88;76.80;102883.63;7391493;19;20354;-56
2022/07/08 02:01:40;;;;;;;16.63;2.50;;;;;;;19.84;77.18;102885.59;7390448;19;20475;-56
2022/07/08 02:04:09;;;;;;;6.05;2.00;;;;;;;19.92;74.97;102893.19;7392179;19;20015;-50
2022/07/08 02:06:38;;;;;;;10.15;2.20;;;;;;;19.48;77.73;102890.91;7396119;19;20018;-52
2022/07/08 02:09:07;;;;;;;6.30;2.53;;;;;;;19.62;76.34;102893.75;7390948;19;20351;-54
2022/07/08 02:14:19;;;;;;;6.72;2.13;;;;;;;19.95;74.67;102882.38;7391091;19;20018;-53
2022/07/08 02:16:48;;;;;;;7.60;2.58;;;;;;;19.83;75.94;102889.19;7390942;19;20014;-53
2022/07/08 02:19:17;;;;;;;9.85;2.42;;;;;;;19.77;76.74;102889.47;7389937;19;20021;-57
2022/07/08 02:21:46;;;;;;;7.10;2.10;;;;;;;20.05;77.13;102886.28;7389521;19;20018;-52
2022/07/08 02:24:15;;;;;;;8.15;1.90;;;;;;;20.22;76.37;102889.88;7395210;19;20490;-51
2022/07/08 02:26:46;;;;;;;7.95;2.30;;;;;;;19.80;74.91;102889.34;7391178;19;20022;-54
2022/07/08 02:29:15;;;;;;;7.72;1.80;;;;;;;19.90;75.99;102883.56;7390476;19;20007;-56
2022/07/08 02:31:44;;;;;;;7.68;2.35;;;;;;;20.07;76.99;102883.53;7390116;19;20010;-54
2022/07/08 02:34:13;;;;;;;9.05;2.20;;;;;;;19.95;75.07;102890.38;7390516;19;20021;-54
2022/07/08 02:36:42;;;;;;;7.30;1.92;;;;;;;19.38;78.19;102897.63;7390834;19;20014;-54
2022/07/08 02:39:12;;;;;;;5.90;1.95;;;;;;;19.71;78.38;102888.00;7388932;19;20015;-56
2022/07/08 02:41:41;;;;;;;7.63;2.40;;;;;;;19.47;78.54;102884.75;7392632;19;20014;-56
2022/07/08 02:44:13;;;;;;;8.35;2.30;;;;;;;19.21;81.20;102891.31;7390545;19;20017;-50
2022/07/08 02:46:42;;;;;;;8.13;2.27;;;;;;;19.65;80.88;102887.44;7392507;19;20014;-51
2022/07/08 02:49:11;;;;;;;10.38;2.42;;;;;;;19.75;79.35;102891.34;7392880;19;20049;-52
2022/07/08 02:51:41;;;;;;;7.25;2.17;;;;;;;19.87;80.16;102889.88;7391507;19;20026;-56
2022/07/08 02:54:10;;;;;;;7.85;2.38;;;;;;;19.94;79.78;102885.97;7392943;19;20356;-56
2022/07/08 02:56:39;;;;;;;9.32;2.42;;;;;;;19.97;79.20;102884.97;7391696;19;20014;-55
2022/07/08 02:59:08;;;;;;;8.30;2.20;;;;;;;20.01;79.93;102882.06;7394064;19;20014;-56
2022/07/08 03:01:39;;;;;;;7.45;2.47;;;;;;;19.94;80.07;102885.97;7389455;19;20022;-56
2022/07/08 03:04:08;;;;;;;8.20;2.38;;;;;;;20.04;81.22;102881.91;7391338;19;20018;-53
2022/07/08 03:06:37;;;;;;;7.00;2.40;;;;;;;19.93;79.14;102883.38;7390138;19;20014;-54
2022/07/08 03:09:06;;;;;;;6.97;2.45;;;;;;;19.52;79.25;102879.19;7389396;19;20014;-57
2022/07/08 03:11:35;;;;;;;6.93;2.45;;;;;;;19.33;80.46;102884.56;7388065;19;20027;-56
2022/07/08 03:14:04;;;;;;;8.15;2.63;;;;;;;19.33;81.65;102885.41;7389090;19;20027;-55
2022/07/08 03:16:33;;;;;;;8.88;2.50;;;;;;;19.48;82.82;102878.47;7392869;19;20044;-51
2022/07/08 03:19:04;;;;;;;7.47;2.40;;;;;;;19.58;80.29;102884.19;7388429;19;20029;-54
2022/07/08 03:21:33;;;;;;;9.93;3.03;;;;;;;19.50;82.81;102881.94;7387321;19;20015;-56
2022/07/08 03:24:02;;;;;;;8.10;2.50;;;;;;;19.70;79.79;102882.72;7389654;19;20026;-54
2022/07/08 03:26:31;;;;;;;11.27;2.50;;;;;;;19.66;78.85;102884.69;7389129;19;20015;-56
2022/07/08 03:29:00;;;;;;;11.38;2.70;;;;;;;19.66;81.36;102875.84;7388019;19;20026;-56
2022/07/08 03:31:28;;;;;;;7.78;2.22;;;;;;;19.55;81.40;102887.00;7387509;19;20018;-50
2022/07/08 03:33:58;;;;;;;10.00;3.30;;;;;;;19.61;80.38;102885.84;7392193;19;20011;-56
2022/07/08 03:36:30;;;;;;;7.78;3.10;;;;;;;19.60;81.17;102892.97;7393606;19;20018;-57
2022/07/08 03:38:58;;;;;;;7.88;3.08;;;;;;;19.79;81.14;102886.78;7388387;19;20033;-56
2022/07/08 03:41:25;;;;;;;8.15;2.55;;;;;;;19.83;80.87;102890.97;7387054;19;20011;-55
2022/07/08 03:43:55;;;;;;;11.70;2.88;;;;;;;19.81;81.10;102893.72;7388453;19;20010;-53
2022/07/08 03:46:24;;;;;;;4.63;2.15;;;;;;;19.78;82.07;102895.66;7388942;19;20022;-56
2022/07/08 03:48:53;;;;;;;5.63;2.53;;;;;;;19.41;81.27;102903.63;7388459;19;20011;-53
2022/07/08 03:51:23;;;;;;;12.85;2.80;;;;;;;19.51;82.71;102904.06;7391703;19;20101;-54
2022/07/08 03:53:55;;;;;;;7.72;2.33;;;;;;;19.42;83.95;102912.50;7398489;19;20006;-52
2022/07/08 03:56:24;;;;;;;10.20;3.05;;;;;;;19.51;84.37;102912.03;7396771;19;20021;-56
2022/07/08 03:58:53;;;;;;;9.82;3.20;;;;;;;19.54;85.01;102909.22;7395599;19;20015;-56
2022/07/08 04:01:21;;;;;;;7.65;2.42;;;;;;;19.55;83.63;102918.94;7394819;19;20475;-55
2022/07/08 04:03:50;;;;;;;8.75;2.80;;;;;;;19.53;85.67;102923.47;7396317;19;20018;-55
2022/07/08 04:06:19;;;;;;;9.80;2.70;;;;;;;18.99;86.85;102916.22;7399521;19;20021;-57
2022/07/08 04:08:48;;;;;;;8.63;2.60;;;;;;;19.30;87.73;102925.44;7398831;19;20011;-57
2022/07/08 04:11:20;;;;;;;12.57;3.53;;;;;;;19.42;87.14;102926.63;7394946;19;20018;-52
2022/07/08 04:13:49;;;;;;;7.07;2.40;;;;;;;19.63;86.83;102927.41;7397056;19;20025;-56
2022/07/08 04:16:17;;;;;;;12.32;2.85;;;;;;;19.66;85.95;102921.91;7396891;19;20336;-57
2022/07/08 04:18:46;;;;;;;7.90;2.92;;;;;;;19.61;85.19;102923.09;7395268;19;20007;-57
2022/07/08 04:21:15;;;;;;;8.35;3.22;;;;;;;19.49;84.98;102930.72;7393522;19;20026;-53
2022/07/08 04:23:44;;;;;;;9.25;3.15;;;;;;;19.35;85.77;102922.56;7394751;19;20006;-55
2022/07/08 04:26:13;;;;;;;10.15;2.67;;;;;;;19.42;87.14;102931.94;7396561;19;20112;-54
2022/07/08 04:28:44;;;;;;;14.38;3.40;;;;;;;19.54;87.49;102936.69;7394347;19;20018;-51
2022/07/08 04:31:13;;;;;;;12.63;2.83;;;;;;;19.31;87.63;102947.56;7393786;19;20021;-56
2022/07/08 04:33:42;;;;;;;8.70;3.03;;;;;;;19.39;87.38;102945.41;7395146;19;20011;-56
2022/07/08 04:36:11;;;;;;;11.73;3.10;;;;;;;18.93;91.20;102947.56;7395637;19;20111;-51
2022/07/08 04:38:40;;;;;;;11.82;3.05;;;;;;;18.78;93.29;102946.41;7393120;19;20025;-55
2022/07/08 04:41:09;;;;;;;8.25;3.30;;;;;;;19.11;90.76;102952.03;7393122;19;20019;-55
2022/07/08 04:43:38;;;;;;;8.10;3.03;;;;;;;18.82;93.32;102955.97;7396545;19;20034;-55
2022/07/08 04:46:09;;;;;;;11.30;3.35;;;;;;;18.74;93.90;102950.13;7394872;19;20019;-54
2022/07/08 04:48:38;;;;;;;11.77;3.38;;;;;;;18.42;96.12;102945.31;7394177;19;20024;-52
2022/07/08 04:51:07;;;;;;;9.73;2.78;;;;;;;18.64;95.58;102944.38;7393444;19;20011;-54
2022/07/08 04:53:36;;;;;;;11.70;3.20;;;;;;;18.85;93.97;102947.84;7395319;19;20022;-54
2022/07/08 04:56:06;;;;;;;11.68;2.85;;;;;;;19.17;92.43;102959.72;7394088;19;20015;-57
2022/07/08 04:58:35;;;;;;;12.98;3.13;;;;;;;19.32;90.97;102968.75;7393573;19;20011;-52
2022/07/08 05:01:04;;;;;;;12.07;2.88;;;;;;;19.15;90.90;102968.69;7394043;19;20033;-52
2022/07/08 05:03:35;;;;;;;11.02;3.17;;;;;;;19.26;91.08;102966.38;7392576;19;20018;-55
2022/07/08 05:06:04;;;;;;;15.93;3.25;;;;;;;18.36;98.97;102960.66;7393933;19;20023;-55
2022/07/08 05:08:33;;;;;;;10.15;3.40;;;;;;;18.40;99.04;102957.81;7392900;19;20032;-54
2022/07/08 05:11:02;;;;;;;12.07;2.97;;;;;;;18.61;98.57;102969.28;7392656;19;20083;-55
2022/07/08 05:13:31;;;;;;;7.18;3.28;;;;;;;18.92;96.22;102969.72;7394300;19;20367;-55
2022/07/08 05:16:01;;;;;;;10.65;3.60;;;;;;;19.16;92.59;102965.09;7393714;19;20007;-56
2022/07/08 05:18:29;;;;;;;12.50;3.67;;;;;;;18.84;95.07;102970.91;7394087;19;20671;-54
2022/07/08 05:21:01;;;;;;;10.18;3.75;;;;;;;18.93;94.81;102974.97;7392482;19;20018;-56
2022/07/08 05:23:30;;;;;;;13.52;3.63;;;;;;;18.53;96.78;102971.41;7394263;19;20097;-56
2022/07/08 05:25:59;;;;;;;10.65;4.13;;;;;;;18.45;100.00;102973.53;7394664;19;20021;-51
2022/07/08 05:28:28;;;;;;;13.30;3.90;;;;;;;18.86;96.48;102973.50;7390964;19;20011;-54
2022/07/08 05:30:57;;;;;;;12.50;3.08;;;;;;;18.99;97.22;102976.50;7392567;19;20478;-55
2022/07/08 05:33:25;;;;;;;11.00;3.20;;;;;;;19.25;94.53;102977.94;7393057;19;20014;-54
2022/07/08 05:35:54;;;;;;;18.52;4.05;;;;;;;18.85;98.91;102982.38;7395067;19;20007;-53
2022/07/08 05:38:26;;;;;;;10.57;3.30;;;;;;;18.94;98.77;102986.47;7393250;19;20381;-53
2022/07/08 05:40:55;;;;;;;12.05;3.03;;;;;;;18.92;98.15;102983.88;7391614;19;20025;-57
2022/07/08 05:43:23;;;;;;;11.63;2.80;;;;;;;18.98;98.11;102993.34;7392297;19;20018;-57
2022/07/08 05:45:52;;;;;;;11.40;2.78;;;;;;;19.08;97.83;102986.69;7392313;19;20006;-54
2022/07/08 05:48:21;;;;;;;7.45;2.80;;;;;;;19.39;95.22;102990.59;7391840;19;20014;-56
2022/07/08 05:50:50;;;;;;;10.60;2.67;;;;;;;19.37;95.47;102992.44;7391963;19;20018;-55
2022/07/08 05:53:19;;;;;;;10.68;2.47;;;;;;;19.58;95.16;102993.22;7392547;19;20340;-55
2022/07/08 05:55:51;;;;;;;10.93;2.58;;;;;;;19.73;93.15;102998.75;7392880;19;20582;-56
2022/07/08 05:58:20;;;;;;;9.88;3.00;;;;;;;19.74;91.68;103003.16;7392111;19;20062;-55
2022/07/08 06:00:48;;;;;;;8.23;2.47;;;;;;;19.42;94.33;103002.88;7391831;19;20018;-54
2022/07/08 06:03:17;;;;;;;13.18;3.40;;;;;;;19.68;92.15;103002.50;7392630;19;20011;-57
2022/07/08 06:05:46;;;;;;;7.03;2.60;;;;;;;19.91;92.88;103000.53;7393172;19;20022;-56
2022/07/08 06:08:15;;;;;;;9.23;2.95;;;;;;;19.97;92.22;103002.94;7392214;19;20014;-57
2022/07/08 06:10:44;;;;;;;11.88;3.05;;;;;;;19.81;93.59;103008.13;7391361;19;20026;-55
2022/07/08 06:13:16;;;;;;;10.32;2.60;;;;;;;19.51;92.27;103008.66;7391571;19;20025;-54
2022/07/08 06:15:45;;;;;;;11.40;3.08;;;;;;;19.22;96.95;103006.47;7391923;19;20018;-57
2022/07/08 06:18:14;;;;;;;10.23;2.42;;;;;;;19.43;95.27;103007.25;7392162;19;20034;-52
2022/07/08 06:20:42;;;;;;;8.02;2.60;;;;;;;20.00;92.37;103002.78;7390835;19;20022;-55
2022/07/08 06:23:11;;;;;;;14.40;2.70;;;;;;;19.90;92.67;103001.47;7392399;19;20014;-55
2022/07/08 06:25:40;;;;;;;10.15;3.03;;;;;;;20.06;92.55;103006.94;7391686;19;20018;-55
2022/07/08 06:28:09;;;;;;;8.93;2.30;;;;;;;20.31;91.51;102989.72;7391950;19;20320;-53
2022/07/08 06:30:42;;;;;;;7.85;2.67;;;;;;;20.49;91.48;103004.75;7396233;19;20014;-57
2022/07/08 06:33:12;;;;;;;8.63;2.30;;;;;;;20.66;89.81;103005.66;7397142;19;20027;-51
2022/07/08 06:35:41;;;;;;;7.70;2.58;;;;;;;20.27;89.42;102999.66;7391941;19;20019;-51
2022/07/08 06:38:10;;;;;;;10.85;2.42;;;;;;;20.39;88.66;103003.50;7391137;19;20026;-54
2022/07/08 06:40:39;;;;;;;10.25;2.30;;;;;;;20.24;89.61;102997.16;7390062;19;20014;-52
2022/07/08 06:43:08;;;;;;;8.52;2.55;;;;;;;20.31;90.03;103001.22;7389379;19;20025;-54
2022/07/08 06:45:36;;;;;;;9.98;2.10;;;;;;;20.53;87.95;102998.34;7392451;19;20082;-54
2022/07/08 06:48:08;;;;;;;9.05;2.30;;;;;;;20.53;88.09;102995.66;7390858;19;20034;-51
2022/07/08 06:50:37;;;;;;;8.00;2.85;;;;;;;20.38;88.55;102994.63;7389928;19;20521;-51
2022/07/08 06:53:06;;;;;;;9.50;2.53;;;;;;;20.35;91.81;102992.13;7391168;19;20008;-51
2022/07/08 06:55:35;;;;;;;10.00;2.35;;;;;;;20.33;90.11;102995.81;7390693;19;20082;-56
2022/07/08 06:58:04;;;;;;;10.05;2.53;;;;;;;20.43;90.57;102998.88;7391389;19;20324;-57
2022/07/08 07:00:33;;;;;;;10.50;2.58;;;;;;;20.63;90.27;102988.06;7389982;19;20021;-54
2022/07/08 07:03:02;;;;;;;13.05;3.33;;;;;;;20.75;90.18;103007.91;7389345;19;20027;-54
2022/07/08 07:05:33;;;;;;;13.57;2.70;;;;;;;20.47;88.31;103006.63;7391679;19;20331;-51
2022/07/08 07:08:03;;;;;;;14.13;2.63;;;;;;;20.37;92.12;103000.94;7391068;19;20122;-51
2022/07/08 07:10:31;;;;;;;12.10;2.70;;;;;;;20.48;90.84;103002.16;7390912;19;20021;-56
2022/07/08 07:13:00;;;;;;;7.22;2.20;;;;;;;20.29;91.71;102984.47;7392081;19;20023;-57
2022/07/08 07:15:29;;;;;;;11.40;3.42;;;;;;;20.70;90.34;102986.81;7391000;19;20011;-55
2022/07/08 07:17:58;;;;;;;8.65;2.42;;;;;;;20.87;87.31;102993.91;7391093;19;20019;-50
2022/07/08 07:20:27;;;;;;;11.68;2.65;;;;;;;21.15;86.66;102986.22;7391280;19;20011;-51
2022/07/08 07:22:58;;;;;;;13.70;2.70;;;;;;;20.85;87.36;103003.78;7390909;19;20082;-54
2022/07/08 07:25:28;;;;;;;10.10;2.35;;;;;;;20.63;91.04;103008.50;7395777;19;20014;-51
2022/07/08 07:27:57;;;;;;;10.93;2.30;;;;;;;20.74;89.99;103004.34;7400836;19;20451;-55
2022/07/08 07:30:26;;;;;;;11.48;2.40;;;;;;;20.76;90.23;103008.75;7396551;19;20014;-53
2022/07/08 07:32:55;;;;;;;10.57;2.38;;;;;;;20.93;88.21;103014.03;7397436;19;20052;-49
2022/07/08 07:35:24;;;;;;;12.52;2.40;;;;;;;20.88;91.84;102998.28;7397454;19;20010;-53
2022/07/08 07:37:53;;;;;;;13.20;2.70;;;;;;;21.07;88.78;103010.63;7398159;19;20011;-49
2022/07/08 07:40:25;;;;;;;12.30;2.72;;;;;;;21.31;88.48;103015.59;7396146;19;20018;-48
2022/07/08 07:42:53;;;;;;;11.05;2.65;;;;;;;20.84;87.53;103017.19;7395881;19;20022;-49
2022/07/08 07:45:22;;;;;;;11.13;2.38;;;;;;;20.99;87.19;103015.50;7400526;19;20019;-49
2022/07/08 07:47:51;;;;;;;8.82;2.28;;;;;;;20.95;86.79;103012.16;7397411;19;20355;-51
2022/07/08 07:50:20;;;;;;;9.43;2.35;;;;;;;20.97;85.36;103025.41;7396008;19;20021;-50
2022/07/08 07:52:49;;;;;;;11.30;2.35;;;;;;;21.34;87.15;103013.59;7396825;19;20033;-53
2022/07/08 07:55:18;;;;;;;7.55;2.25;;;;;;;21.63;82.94;103012.97;7399577;19;20010;-48
2022/07/08 07:57:50;;;;;;;7.05;2.08;;;;;;;21.73;80.00;103008.81;7396800;19;20356;-49
2022/07/08 08:00:19;;;;;;;10.18;2.30;;;;;;;21.25;78.46;103014.13;7396358;19;20018;-48
2022/07/08 08:02:48;;;;;;;10.73;2.03;;;;;;;21.26;81.92;103013.16;7395121;19;20026;-51
2022/07/08 08:05:17;;;;;;;8.80;2.25;;;;;;;21.30;80.55;103016.53;7396879;19;20039;-49
2022/07/08 08:07:46;;;;;;;7.70;2.10;;;;;;;21.36;83.47;103016.19;7396262;19;20495;-56
2022/07/08 08:10:14;;;;;;;9.23;2.10;;;;;;;21.38;77.67;103012.47;7395056;19;20024;-48
2022/07/08 08:12:44;;;;;;;7.10;2.10;;;;;;;21.53;78.21;103007.28;7397016;19;20007;-52
2022/07/08 08:15:16;;;;;;;9.15;2.42;;;;;;;21.48;76.03;103017.28;7395676;19;20340;-51
2022/07/08 08:17:45;;;;;;;6.72;2.38;;;;;;;21.49;76.73;103021.69;7396558;19;20018;-51
2022/07/08 08:20:15;;;;;;;8.13;2.40;;;;;;;21.85;76.93;103020.59;7395380;19;20025;-53
2022/07/08 08:22:44;;;;;;;7.50;2.13;;;;;;;21.83;72.33;103017.16;7395279;19;20486;-48
2022/07/08 08:25:13;;;;;;;11.70;2.45;;;;;;;22.04;76.39;103018.59;7396883;19;20026;-56
2022/07/08 08:27:42;;;;;;;11.40;2.35;;;;;;;22.27;74.86;103019.91;7400337;19;20023;-55
2022/07/08 08:30:13;;;;;;;11.73;3.05;;;;;;;22.18;74.05;103017.78;7399903;19;20022;-46
2022/07/08 08:32:44;;;;;;;10.40;2.58;;;;;;;21.99;72.91;103017.13;7399905;19;20018;-49
2022/07/08 08:35:13;;;;;;;8.13;2.10;;;;;;;21.99;72.40;103017.13;7399682;19;20014;-48
2022/07/08 08:37:42;;;;;;;7.65;2.05;;;;;;;22.05;71.48;103009.63;7397745;19;20011;-50
2022/07/08 08:40:13;;;;;;;4.80;1.80;;;;;;;22.34;71.74;103009.75;7397375;19;20371;-53
2022/07/08 08:42:43;;;;;;;7.28;1.98;;;;;;;21.98;73.53;103010.94;7396708;19;20029;-56
2022/07/08 08:45:13;;;;;;;7.63;2.08;;;;;;;22.26;71.45;103015.50;7398436;19;20026;-48
2022/07/08 08:47:49;;;;;;;6.88;2.17;;;;;;;22.55;71.93;103014.75;7396483;19;20359;-48
2022/07/08 08:53:03;;;;;;;17.55;2.70;;;;;;;22.41;72.00;103013.78;7395015;19;20019;-55
2022/07/08 08:55:34;;;;;;;11.50;2.53;;;;;;;22.49;72.31;103024.00;7395965;19;20118;-48
2022/07/08 08:58:05;;;;;;;9.80;2.50;;;;;;;22.36;77.35;103018.53;7395212;19;20367;-48
2022/07/08 09:00:37;;;;;;;12.73;2.80;;;;;;;22.37;76.45;103014.06;7393930;19;20021;-49
2022/07/08 09:03:08;;;;;;;12.60;3.05;;;;;;;22.56;77.29;103011.97;7394434;19;20018;-51
2022/07/08 09:05:37;;;;;;;7.28;2.20;;;;;;;22.65;73.77;103010.56;7397573;19;20018;-48
2022/07/08 09:08:06;;;;;;;7.82;2.53;;;;;;;22.61;79.31;103014.41;7395500;19;20021;-52
2022/07/08 09:10:35;;;;;;;8.80;2.50;;;;;;;22.79;75.52;103007.91;7396937;19;20022;-49
2022/07/08 09:13:10;;;;;;;9.38;2.45;;;;;;;22.76;77.25;103009.91;7398198;19;20021;-54
2022/07/08 09:15:40;;;;;;;14.88;2.67;;;;;;;23.03;77.00;103010.03;7397445;19;20305;-50
2022/07/08 09:18:14;;;;;;;5.28;2.00;;;;;;;22.85;76.33;103009.34;7398004;19;20019;-53
2022/07/08 09:20:44;;;;;;;9.15;2.65;;;;;;;22.78;75.39;103006.22;7396930;19;20025;-49
2022/07/08 09:23:21;;;;;;;12.40;2.55;;;;;;;22.66;77.92;103003.44;7396921;19;20034;-47
2022/07/08 09:25:51;;;;;;;6.55;2.40;;;;;;;22.77;77.74;103001.81;7397605;19;20015;-50
2022/07/08 09:28:32;;;;;;;9.98;2.95;;;;;;;23.12;76.68;102997.91;7394558;19;20038;-54
2022/07/08 09:31:02;;;;;;;9.18;2.70;;;;;;;23.07;73.16;103000.84;7395616;19;20022;-47
2022/07/08 09:33:34;;;;;;;8.13;2.50;;;;;;;22.88;73.36;102993.13;7396798;19;20025;-51
2022/07/08 09:36:05;;;;;;;7.13;2.30;;;;;;;23.29;74.22;103000.38;7397575;19;20010;-52
2022/07/08 09:38:38;;;;;;;9.55;2.30;;;;;;;23.37;70.82;103004.38;7396481;19;20029;-52
2022/07/08 09:41:09;;;;;;;8.85;2.05;;;;;;;23.07;73.03;103000.84;7396148;19;20598;-48
2022/07/08 09:43:48;;;;;;;6.70;2.15;;;;;;;23.49;73.33;103004.44;7396348;19;20019;-49
2022/07/08 09:46:16;;;;;;;7.03;2.00;;;;;;;23.58;70.42;103002.13;7400032;19;20022;-50
2022/07/08 09:48:48;;;;;;;5.07;2.00;;;;;;;23.61;71.05;103000.13;7394052;19;20028;-52
2022/07/08 09:51:18;;;;;;;6.35;1.88;;;;;;;24.19;73.92;102998.06;7395071;19;20014;-49
2022/07/08 09:53:47;;;;;;;8.13;1.73;;;;;;;24.81;69.29;102996.53;7397679;19;20353;-51
2022/07/08 09:56:16;;;;;;;4.97;1.90;;;;;;;24.88;62.94;102988.91;7397145;19;20636;-48
2022/07/08 09:58:49;;;;;;;5.20;1.60;;;;;;;25.04;66.52;102997.59;7396278;19;20014;-52
2022/07/08 10:01:19;;;;;;;7.55;2.38;;;;;;;25.27;63.73;103007.63;7395389;19;20033;-49
2022/07/08 10:03:50;;;;;;;5.18;1.95;;;;;;;25.16;59.39;102998.53;7394517;19;20028;-50
2022/07/08 10:06:19;;;;;;;5.40;2.03;;;;;;;24.93;61.41;103005.56;7396645;19;20022;-54
2022/07/08 10:08:48;;;;;;;5.95;2.63;;;;;;;24.85;62.78;103000.72;7394300;19;20476;-51
2022/07/08 10:11:18;;;;;;;6.00;2.10;;;;;;;24.42;60.90;102990.28;7394570;19;20514;-53
2022/07/08 10:13:48;;;;;;;5.90;2.15;;;;;;;24.35;62.29;102991.69;7396050;19;20557;-52
2022/07/08 10:16:18;;;;;;;4.68;1.98;;;;;;;24.12;62.86;102999.47;7396380;19;20010;-49
2022/07/08 10:18:54;;;;;;;6.68;2.00;;;;;;;24.14;64.59;102983.28;7395072;19;20018;-53
2022/07/08 10:21:25;;;;;;;6.10;2.20;;;;;;;24.30;63.79;102997.34;7393721;19;20359;-51
2022/07/08 10:23:56;;;;;;;9.55;1.85;;;;;;;24.67;67.42;102999.34;7393487;19;20104;-52
2022/07/08 10:26:29;;;;;;;8.38;2.17;;;;;;;24.66;61.42;102997.63;7393932;19;20025;-51
2022/07/08 10:29:06;;;;;;;5.50;2.10;;;;;;;24.84;63.63;103001.69;7394864;19;20459;-54
2022/07/08 10:31:44;;;;;;;8.18;2.50;;;;;;;25.15;65.12;102998.66;7393542;19;20033;-49
2022/07/08 10:34:20;;;;;;;8.43;2.03;;;;;;;24.96;61.48;103007.13;7394788;19;20025;-53
2022/07/08 10:36:50;;;;;;;7.05;3.28;;;;;;;24.79;63.20;103011.88;7394958;19;20022;-53
2022/07/08 10:39:27;;;;;;;6.82;2.20;;;;;;;24.94;61.94;102993.00;7394616;19;20014;-52
2022/07/08 10:42:02;;;;;;;5.15;2.00;;;;;;;25.15;63.47;102994.13;7392608;19;20019;-53
2022/07/08 10:44:52;;;;;;;7.57;2.53;;;;;;;25.29;63.34;102989.56;7392840;19;20019;-50
2022/07/08 10:47:28;;;;;;;6.30;2.08;;;;;;;25.44;63.07;102993.00;7394896;19;20019;-50
2022/07/08 10:50:09;;;;;;;8.32;2.10;;;;;;;25.35;63.04;102995.41;7394884;19;20022;-48
2022/07/08 10:52:41;;;;;;;5.88;2.10;;;;;;;24.98;61.36;102997.19;7396089;19;20015;-56
2022/07/08 10:55:15;;;;;;;11.45;2.20;;;;;;;25.11;61.17;103003.38;7395919;19;20022;-53
2022/07/08 10:57:56;;;;;;;7.40;2.55;;;;;;;25.34;60.41;103000.88;7396560;19;20014;-51
2022/07/08 11:00:26;;;;;;;14.35;3.40;;;;;;;25.40;61.47;103000.41;7397214;19;20018;-51
2022/07/08 11:02:55;;;;;;;6.80;2.03;;;;;;;25.02;60.24;102993.31;7404377;19;20019;-53
2022/07/08 11:05:41;;;;;;;6.18;2.53;;;;;;;24.96;61.53;102997.28;7405101;19;20014;-48
2022/07/08 11:08:26;;;;;;;10.07;2.22;;;;;;;25.12;65.17;102988.16;7404857;19;20018;-52
2022/07/08 11:10:56;;;;;;;6.90;2.45;;;;;;;25.42;59.86;102993.13;7403120;19;20347;-56
2022/07/08 11:13:26;;;;;;;8.05;2.65;;;;;;;25.24;60.94;102989.91;7403764;19;20043;-56
2022/07/08 11:15:55;;;;;;;4.60;2.25;;;;;;;24.65;60.50;102982.50;7403747;19;20014;-51
2022/07/08 11:18:25;;;;;;;4.53;2.20;;;;;;;25.17;61.74;102988.66;7399986;19;20018;-48
2022/07/08 11:21:02;;;;;;;7.15;2.00;;;;;;;25.48;63.41;102981.94;7400211;19;20018;-50
2022/07/08 11:23:32;;;;;;;11.82;3.17;;;;;;;25.86;60.60;102986.28;7399998;19;20359;-52
2022/07/08 11:26:01;;;;;;;7.70;2.67;;;;;;;25.91;56.32;102984.09;7401004;19;20019;-52
2022/07/08 11:28:30;;;;;;;7.72;2.50;;;;;;;25.93;57.00;102975.91;7399767;19;20014;-50
2022/07/08 11:31:01;;;;;;;6.55;2.30;;;;;;;25.70;57.50;102981.22;7376476;19;20033;-51
2022/07/08 11:33:40;;;;;;;6.40;2.60;;;;;;;25.35;59.66;102986.50;7400177;19;20507;-54
2022/07/08 11:36:19;;;;;;;13.40;3.25;;;;;;;25.30;60.58;102983.25;7401382;19;20025;-57
2022/07/08 11:38:50;;;;;;;7.47;2.58;;;;;;;25.90;59.79;102979.72;7400421;19;20018;-54
2022/07/08 11:41:20;;;;;;;6.68;2.50;;;;;;;26.33;56.34;102972.03;7398967;19;20026;-52